sensor_id;sensor_type;location;lat;lon;timestamp;pressure;altitude;pressure_sealevel;temperature;humidity
75065;BME280;63646;49.110;9.140;2022-11-28T00:02:01;99261.88;;;21.23;57.58
75065;BME280;63646;49.110;9.140;2022-11-28T00:04:27;99274.34;;;21.23;57.28
75065;BME280;63646;49.110;9.140;2022-11-28T00:06:52;99278.81;;;21.22;57.29
75065;BME280;63646;49.110;9.140;2022-11-28T00:09:19;99284.97;;;21.23;57.45
75065;BME280;63646;49.110;9.140;2022-11-28T00:11:46;99271.84;;;21.21;57.17
75065;BME280;63646;49.110;9.140;2022-11-28T00:14:13;99273.66;;;21.21;57.11
75065;BME280;63646;49.110;9.140;2022-11-28T00:16:39;99268.47;;;21.19;57.35
75065;BME280;63646;49.110;9.140;2022-11-28T00:19:04;99271.13;;;21.19;57.57
75065;BME280;63646;49.110;9.140;2022-11-28T00:21:30;99271.28;;;21.18;57.64
75065;BME280;63646;49.110;9.140;2022-11-28T00:23:56;99269.59;;;21.17;57.22
75065;BME280;63646;49.110;9.140;2022-11-28T00:26:27;99258.00;;;21.18;57.20
75065;BME280;63646;49.110;9.140;2022-11-28T00:28:54;99267.66;;;21.19;57.14
75065;BME280;63646;49.110;9.140;2022-11-28T00:31:22;99267.66;;;21.19;57.40
75065;BME280;63646;49.110;9.140;2022-11-28T00:33:48;99265.16;;;21.17;57.36
75065;BME280;63646;49.110;9.140;2022-11-28T00:36:14;99259.84;;;21.17;57.17
75065;BME280;63646;49.110;9.140;2022-11-28T00:38:40;99261.63;;;21.17;57.27
75065;BME280;63646;49.110;9.140;2022-11-28T00:41:08;99260.78;;;21.16;57.60
75065;BME280;63646;49.110;9.140;2022-11-28T00:43:34;99261.50;;;21.18;57.24
75065;BME280;63646;49.110;9.140;2022-11-28T00:45:59;99261.50;;;21.18;57.18
75065;BME280;63646;49.110;9.140;2022-11-28T00:48:25;99258.97;;;21.17;57.35
75065;BME280;63646;49.110;9.140;2022-11-28T00:50:52;99257.31;;;21.16;57.61
75065;BME280;63646;49.110;9.140;2022-11-28T00:53:18;99260.78;;;21.16;57.12
75065;BME280;63646;49.110;9.140;2022-11-28T00:55:43;99263.44;;;21.16;57.39
75065;BME280;63646;49.110;9.140;2022-11-28T00:58:09;99258.97;;;21.17;57.47
75065;BME280;63646;49.110;9.140;2022-11-28T01:00:34;99252.81;;;21.16;57.22
75065;BME280;63646;49.110;9.140;2022-11-28T01:02:59;99252.00;;;21.16;57.61
75065;BME280;63646;49.110;9.140;2022-11-28T01:05:25;99253.66;;;21.17;57.10
75065;BME280;63646;49.110;9.140;2022-11-28T01:07:51;99249.34;;;21.16;57.37
75065;BME280;63646;49.110;9.140;2022-11-28T01:10:16;99245.69;;;21.17;57.57
75065;BME280;63646;49.110;9.140;2022-11-28T01:12:42;99239.53;;;21.16;57.14
75065;BME280;63646;49.110;9.140;2022-11-28T01:15:09;99232.56;;;21.15;57.44
75065;BME280;63646;49.110;9.140;2022-11-28T01:17:36;99228.25;;;21.14;57.49
75065;BME280;63646;49.110;9.140;2022-11-28T01:20:03;99223.75;;;21.15;57.37
75065;BME280;63646;49.110;9.140;2022-11-28T01:22:29;99222.09;;;21.14;57.66
75065;BME280;63646;49.110;9.140;2022-11-28T01:24:55;99224.03;;;21.12;56.92
75065;BME280;63646;49.110;9.140;2022-11-28T01:27:20;99218.72;;;21.12;57.16
75065;BME280;63646;49.110;9.140;2022-11-28T01:29:45;99221.38;;;21.12;57.36
75065;BME280;63646;49.110;9.140;2022-11-28T01:32:11;99211.75;;;21.11;57.37
75065;BME280;63646;49.110;9.140;2022-11-28T01:34:36;99208.28;;;21.10;57.32
75065;BME280;63646;49.110;9.140;2022-11-28T01:37:01;99211.75;;;21.11;57.60
75065;BME280;63646;49.110;9.140;2022-11-28T01:39:27;99208.41;;;21.09;57.08
75065;BME280;63646;49.110;9.140;2022-11-28T01:41:52;99198.59;;;21.09;57.01
75065;BME280;63646;49.110;9.140;2022-11-28T01:46:43;99195.94;;;21.09;57.16
75065;BME280;63646;49.110;9.140;2022-11-28T01:49:19;99201.13;;;21.11;57.33
75065;BME280;63646;49.110;9.140;2022-11-28T01:51:48;99202.25;;;21.08;57.45
75065;BME280;63646;49.110;9.140;2022-11-28T01:54:16;99203.91;;;21.09;57.30
75065;BME280;63646;49.110;9.140;2022-11-28T01:56:47;99198.59;;;21.09;57.11
75065;BME280;63646;49.110;9.140;2022-11-28T01:59:15;99202.25;;;21.08;57.22
75065;BME280;63646;49.110;9.140;2022-11-28T02:01:42;99202.09;;;21.10;57.27
75065;BME280;63646;49.110;9.140;2022-11-28T02:04:08;99207.41;;;21.10;57.43
75065;BME280;63646;49.110;9.140;2022-11-28T02:06:34;99205.63;;;21.10;57.67
75065;BME280;63646;49.110;9.140;2022-11-28T02:09:00;99196.94;;;21.08;57.02
75065;BME280;63646;49.110;9.140;2022-11-28T02:27:59;99152.78;;;21.07;57.02
75065;BME280;63646;49.110;9.140;2022-11-28T02:33:33;99129.84;;;21.06;57.47
75065;BME280;63646;49.110;9.140;2022-11-28T02:36:23;99113.06;;;21.06;57.29
75065;BME280;63646;49.110;9.140;2022-11-28T02:39:12;99101.59;;;21.05;57.20
75065;BME280;63646;49.110;9.140;2022-11-28T02:44:42;99136.28;;;21.04;57.35
75065;BME280;63646;49.110;9.140;2022-11-28T02:47:13;99139.78;;;21.04;56.89
75065;BME280;63646;49.110;9.140;2022-11-28T02:50:05;99134.63;;;21.03;57.63
75065;BME280;63646;49.110;9.140;2022-11-28T02:52:43;99140.78;;;21.03;57.07
75065;BME280;63646;49.110;9.140;2022-11-28T02:55:10;99134.63;;;21.03;57.15
75065;BME280;63646;49.110;9.140;2022-11-28T02:57:40;99145.25;;;21.03;57.21
75065;BME280;63646;49.110;9.140;2022-11-28T03:00:33;99146.22;;;21.02;56.96
75065;BME280;63646;49.110;9.140;2022-11-28T03:03:05;99113.38;;;21.03;57.23
75065;BME280;63646;49.110;9.140;2022-11-28T03:12:01;99129.31;;;21.03;57.04
75065;BME280;63646;49.110;9.140;2022-11-28T03:16:55;99138.25;;;21.02;57.10
75065;BME280;63646;49.110;9.140;2022-11-28T03:19:41;99134.75;;;21.01;57.33
75065;BME280;63646;49.110;9.140;2022-11-28T03:28:16;99126.94;;;20.99;57.03
75065;BME280;63646;49.110;9.140;2022-11-28T03:31:04;99128.63;;;21.01;57.13
75065;BME280;63646;49.110;9.140;2022-11-28T03:33:39;99131.28;;;21.01;57.08
75065;BME280;63646;49.110;9.140;2022-11-28T03:36:12;99120.66;;;21.01;57.13
75065;BME280;63646;49.110;9.140;2022-11-28T03:38:47;99117.16;;;21.00;57.53
75065;BME280;63646;49.110;9.140;2022-11-28T03:41:17;99102.50;;;20.96;57.31
75065;BME280;63646;49.110;9.140;2022-11-28T03:43:49;99111.16;;;20.98;57.28
75065;BME280;63646;49.110;9.140;2022-11-28T03:46:18;99107.53;;;20.99;57.25
75065;BME280;63646;49.110;9.140;2022-11-28T03:48:49;99105.00;;;20.97;56.99
75065;BME280;63646;49.110;9.140;2022-11-28T03:54:13;99090.19;;;20.95;57.38
75065;BME280;63646;49.110;9.140;2022-11-28T03:59:44;99098.16;;;20.95;57.52
75065;BME280;63646;49.110;9.140;2022-11-28T04:10:04;99100.97;;;20.93;57.30
75065;BME280;63646;49.110;9.140;2022-11-28T04:17:58;99105.47;;;20.93;57.45
75065;BME280;63646;49.110;9.140;2022-11-28T04:20:29;99102.78;;;20.93;57.31
75065;BME280;63646;49.110;9.140;2022-11-28T04:23:03;99103.63;;;20.93;57.45
75065;BME280;63646;49.110;9.140;2022-11-28T04:25:32;99101.97;;;20.92;57.18
75065;BME280;63646;49.110;9.140;2022-11-28T04:28:01;99101.97;;;20.92;57.15
75065;BME280;63646;49.110;9.140;2022-11-28T04:30:28;99095.00;;;20.91;57.57
75065;BME280;63646;49.110;9.140;2022-11-28T04:32:58;99089.69;;;20.91;57.15
75065;BME280;63646;49.110;9.140;2022-11-28T04:35:28;99079.88;;;20.92;57.62
75065;BME280;63646;49.110;9.140;2022-11-28T04:37:56;99093.00;;;20.93;57.12
75065;BME280;63646;49.110;9.140;2022-11-28T04:40:24;99088.81;;;20.91;56.88
75065;BME280;63646;49.110;9.140;2022-11-28T04:42:58;99096.66;;;20.92;57.15
75065;BME280;63646;49.110;9.140;2022-11-28T04:45:29;99091.34;;;20.92;57.13
75065;BME280;63646;49.110;9.140;2022-11-28T04:47:57;99095.81;;;20.92;57.42
75065;BME280;63646;49.110;9.140;2022-11-28T04:50:24;99087.03;;;20.91;57.08
75065;BME280;63646;49.110;9.140;2022-11-28T04:53:02;99095.00;;;20.91;57.64
75065;BME280;63646;49.110;9.140;2022-11-28T04:55:34;99096.94;;;20.89;57.42
75065;BME280;63646;49.110;9.140;2022-11-28T04:58:18;99093.47;;;20.89;57.26
75065;BME280;63646;49.110;9.140;2022-11-28T05:00:47;99105.22;;;20.86;57.14
75065;BME280;63646;49.110;9.140;2022-11-28T05:03:14;99108.69;;;20.87;57.56
75065;BME280;63646;49.110;9.140;2022-11-28T05:05:45;99102.56;;;20.86;57.20
75065;BME280;63646;49.110;9.140;2022-11-28T05:08:11;99096.41;;;20.86;56.92
75065;BME280;63646;49.110;9.140;2022-11-28T05:10:36;99092.09;;;20.85;57.51
75065;BME280;63646;49.110;9.140;2022-11-28T05:13:02;99092.75;;;20.87;57.48
75065;BME280;63646;49.110;9.140;2022-11-28T05:15:28;99080.47;;;20.86;57.45
75065;BME280;63646;49.110;9.140;2022-11-28T05:17:53;99082.28;;;20.85;57.05
75065;BME280;63646;49.110;9.140;2022-11-28T05:20:18;99087.63;;;20.85;57.41
75065;BME280;63646;49.110;9.140;2022-11-28T05:22:44;99083.28;;;20.84;57.23
75065;BME280;63646;49.110;9.140;2022-11-28T05:25:09;99077.13;;;20.84;57.25
75065;BME280;63646;49.110;9.140;2022-11-28T05:27:34;99087.44;;;20.87;57.07
75065;BME280;63646;49.110;9.140;2022-11-28T05:30:00;99096.41;;;20.86;57.27
75065;BME280;63646;49.110;9.140;2022-11-28T05:32:28;99093.06;;;20.84;57.27
75065;BME280;63646;49.110;9.140;2022-11-28T05:34:54;99099.34;;;20.83;57.16
75065;BME280;63646;49.110;9.140;2022-11-28T05:37:20;99101.72;;;20.86;57.71
75065;BME280;63646;49.110;9.140;2022-11-28T05:39:45;99091.09;;;20.86;57.42
75065;BME280;63646;49.110;9.140;2022-11-28T05:42:10;99103.53;;;20.85;57.01
75065;BME280;63646;49.110;9.140;2022-11-28T05:44:36;99104.38;;;20.86;57.32
75065;BME280;63646;49.110;9.140;2022-11-28T05:47:01;99094.03;;;20.83;57.27
75065;BME280;63646;49.110;9.140;2022-11-28T05:49:26;99100.88;;;20.85;57.41
75065;BME280;63646;49.110;9.140;2022-11-28T05:51:53;99116.81;;;20.85;56.94
75065;BME280;63646;49.110;9.140;2022-11-28T05:54:18;99117.81;;;20.84;57.04
75065;BME280;63646;49.110;9.140;2022-11-28T05:56:44;99104.53;;;20.84;57.34
75065;BME280;63646;49.110;9.140;2022-11-28T05:59:09;99107.31;;;20.83;57.09
75065;BME280;63646;49.110;9.140;2022-11-28T06:01:34;99108.97;;;20.84;57.01
75065;BME280;63646;49.110;9.140;2022-11-28T06:04:00;99104.81;;;20.81;57.40
75065;BME280;63646;49.110;9.140;2022-11-28T06:06:28;99100.19;;;20.83;57.24
75065;BME280;63646;49.110;9.140;2022-11-28T06:08:54;99100.19;;;20.83;57.00
75065;BME280;63646;49.110;9.140;2022-11-28T06:11:21;99095.88;;;20.82;56.89
75065;BME280;63646;49.110;9.140;2022-11-28T06:13:48;99096.56;;;20.84;56.90
75065;BME280;63646;49.110;9.140;2022-11-28T06:16:20;99088.59;;;20.84;57.04
75065;BME280;63646;49.110;9.140;2022-11-28T06:18:46;99084.94;;;20.85;56.96
75065;BME280;63646;49.110;9.140;2022-11-28T06:21:13;99092.91;;;20.85;57.15
75065;BME280;63646;49.110;9.140;2022-11-28T06:23:39;99098.06;;;20.87;57.34
75065;BME280;63646;49.110;9.140;2022-11-28T06:26:10;99095.00;;;20.91;57.65
75065;BME280;63646;49.110;9.140;2022-11-28T06:28:36;99097.66;;;20.91;57.10
75065;BME280;63646;49.110;9.140;2022-11-28T06:31:02;99096.78;;;20.91;57.43
75065;BME280;63646;49.110;9.140;2022-11-28T06:33:28;99099.31;;;20.92;57.46
75065;BME280;63646;49.110;9.140;2022-11-28T06:36:01;99101.97;;;20.92;57.11
75065;BME280;63646;49.110;9.140;2022-11-28T06:38:27;99095.94;;;20.90;57.42
75065;BME280;63646;49.110;9.140;2022-11-28T06:41:02;99093.31;;;20.90;57.34
75065;BME280;63646;49.110;9.140;2022-11-28T06:43:29;99097.78;;;20.90;56.89
75065;BME280;63646;49.110;9.140;2022-11-28T06:45:54;99103.09;;;20.90;57.02
75065;BME280;63646;49.110;9.140;2022-11-28T06:48:20;99095.94;;;20.90;57.56
75065;BME280;63646;49.110;9.140;2022-11-28T06:50:46;99099.44;;;20.91;57.29
75065;BME280;63646;49.110;9.140;2022-11-28T06:53:12;99086.50;;;20.88;57.18
75065;BME280;63646;49.110;9.140;2022-11-28T06:55:37;99090.66;;;20.90;57.63
75065;BME280;63646;49.110;9.140;2022-11-28T06:58:02;99088.81;;;20.91;57.70
75065;BME280;63646;49.110;9.140;2022-11-28T07:00:28;99091.47;;;20.91;57.39
75065;BME280;63646;49.110;9.140;2022-11-28T07:02:53;99087.69;;;20.93;57.69
75065;BME280;63646;49.110;9.140;2022-11-28T07:05:19;99084.38;;;20.91;57.55
75065;BME280;63646;49.110;9.140;2022-11-28T07:07:46;99084.38;;;20.91;57.34
75065;BME280;63646;49.110;9.140;2022-11-28T07:10:11;99094.13;;;20.91;57.65
75065;BME280;63646;49.110;9.140;2022-11-28T07:12:37;99094.28;;;20.89;57.01
75065;BME280;63646;49.110;9.140;2022-11-28T07:15:06;99101.25;;;20.90;57.34
75065;BME280;63646;49.110;9.140;2022-11-28T07:17:33;99102.25;;;20.89;57.46
75065;BME280;63646;49.110;9.140;2022-11-28T07:19:58;99106.75;;;20.89;57.18
75065;BME280;63646;49.110;9.140;2022-11-28T07:22:23;99102.41;;;20.88;57.38
75065;BME280;63646;49.110;9.140;2022-11-28T07:24:49;99101.56;;;20.87;57.70
75065;BME280;63646;49.110;9.140;2022-11-28T07:27:14;99111.22;;;20.88;57.63
75065;BME280;63646;49.110;9.140;2022-11-28T07:29:40;99114.00;;;20.87;57.25
75065;BME280;63646;49.110;9.140;2022-11-28T07:32:05;99113.03;;;20.88;57.31
75065;BME280;63646;49.110;9.140;2022-11-28T07:34:32;99114.84;;;20.87;56.96
75065;BME280;63646;49.110;9.140;2022-11-28T07:36:58;99125.47;;;20.87;57.34
75065;BME280;63646;49.110;9.140;2022-11-28T07:39:23;99135.25;;;20.87;57.05
75065;BME280;63646;49.110;9.140;2022-11-28T07:41:49;99121.00;;;20.88;56.77
75065;BME280;63646;49.110;9.140;2022-11-28T07:44:14;99125.47;;;20.87;56.98
75065;BME280;63646;49.110;9.140;2022-11-28T07:46:43;99128.81;;;20.89;56.67
75065;BME280;63646;49.110;9.140;2022-11-28T07:49:09;99127.28;;;20.87;56.97
75065;BME280;63646;49.110;9.140;2022-11-28T07:51:34;99121.13;;;20.86;56.59
75065;BME280;63646;49.110;9.140;2022-11-28T07:54:01;99127.16;;;20.88;56.75
75065;BME280;63646;49.110;9.140;2022-11-28T07:56:31;99128.81;;;20.89;56.68
75065;BME280;63646;49.110;9.140;2022-11-28T07:58:59;99124.78;;;20.85;56.92
75065;BME280;63646;49.110;9.140;2022-11-28T08:01:29;99130.78;;;20.87;56.71
75065;BME280;63646;49.110;9.140;2022-11-28T08:03:55;99118.47;;;20.86;56.72
75065;BME280;63646;49.110;9.140;2022-11-28T08:06:25;99125.47;;;20.87;56.78
75065;BME280;63646;49.110;9.140;2022-11-28T08:08:51;99116.13;;;20.83;56.64
75065;BME280;63646;49.110;9.140;2022-11-28T08:11:19;99120.84;;;20.89;56.74
75065;BME280;63646;49.110;9.140;2022-11-28T08:13:45;99119.03;;;20.90;56.58
75065;BME280;63646;49.110;9.140;2022-11-28T08:16:13;99117.19;;;20.90;56.77
75065;BME280;63646;49.110;9.140;2022-11-28T08:18:39;99107.56;;;20.89;56.69
75065;BME280;63646;49.110;9.140;2022-11-28T08:21:14;99107.56;;;20.89;56.91
75065;BME280;63646;49.110;9.140;2022-11-28T08:23:39;99105.75;;;20.90;56.59
75065;BME280;63646;49.110;9.140;2022-11-28T08:26:07;99105.63;;;20.91;56.56
75065;BME280;63646;49.110;9.140;2022-11-28T08:28:33;99114.53;;;20.90;56.70
75065;BME280;63646;49.110;9.140;2022-11-28T08:31:08;99114.41;;;20.92;56.57
75065;BME280;63646;49.110;9.140;2022-11-28T08:33:34;99107.56;;;20.89;56.64
75065;BME280;63646;49.110;9.140;2022-11-28T08:36:02;99114.53;;;20.90;57.04
75065;BME280;63646;49.110;9.140;2022-11-28T08:38:28;99116.25;;;20.91;56.71
75065;BME280;63646;49.110;9.140;2022-11-28T08:41:00;99115.53;;;20.89;57.04
75065;BME280;63646;49.110;9.140;2022-11-28T08:43:25;99107.41;;;20.91;56.82
75065;BME280;63646;49.110;9.140;2022-11-28T08:45:51;99109.53;;;20.87;56.93
75065;BME280;63646;49.110;9.140;2022-11-28T08:48:16;99108.28;;;20.91;56.73
75065;BME280;63646;49.110;9.140;2022-11-28T08:50:48;99104.75;;;20.91;56.92
75065;BME280;63646;49.110;9.140;2022-11-28T08:53:17;99112.72;;;20.91;56.68
75065;BME280;63646;49.110;9.140;2022-11-28T08:55:43;99103.09;;;20.90;56.89
75065;BME280;63646;49.110;9.140;2022-11-28T08:58:10;99108.41;;;20.90;57.05
75065;BME280;63646;49.110;9.140;2022-11-28T09:00:36;99115.38;;;20.91;56.99
75065;BME280;63646;49.110;9.140;2022-11-28T09:03:02;99115.53;;;20.89;56.59
75065;BME280;63646;49.110;9.140;2022-11-28T09:05:28;99103.09;;;20.90;56.94
75065;BME280;63646;49.110;9.140;2022-11-28T09:07:54;99113.59;;;20.91;56.76
75065;BME280;63646;49.110;9.140;2022-11-28T09:10:20;99103.91;;;20.90;56.68
75065;BME280;63646;49.110;9.140;2022-11-28T09:12:45;99110.22;;;20.89;56.83
75065;BME280;63646;49.110;9.140;2022-11-28T09:15:11;99111.06;;;20.90;56.56
75065;BME280;63646;49.110;9.140;2022-11-28T09:17:36;99115.38;;;20.91;56.39
75065;BME280;63646;49.110;9.140;2022-11-28T09:20:03;99110.06;;;20.91;56.55
75065;BME280;63646;49.110;9.140;2022-11-28T09:22:28;99125.16;;;20.90;56.73
75065;BME280;63646;49.110;9.140;2022-11-28T09:24:57;99121.56;;;20.91;56.40
75065;BME280;63646;49.110;9.140;2022-11-28T09:27:22;99126.88;;;20.91;56.27
75065;BME280;63646;49.110;9.140;2022-11-28T09:29:47;99126.88;;;20.91;56.53
75065;BME280;63646;49.110;9.140;2022-11-28T09:32:13;99133.84;;;20.92;56.61
75065;BME280;63646;49.110;9.140;2022-11-28T09:34:38;99128.66;;;20.91;56.58
75065;BME280;63646;49.110;9.140;2022-11-28T09:37:03;99123.34;;;20.91;56.28
75065;BME280;63646;49.110;9.140;2022-11-28T09:39:29;99124.22;;;20.91;56.75
75065;BME280;63646;49.110;9.140;2022-11-28T09:44:39;99112.88;;;20.89;56.66
75065;BME280;63646;49.110;9.140;2022-11-28T09:47:20;99117.19;;;20.90;56.26
75065;BME280;63646;49.110;9.140;2022-11-28T09:52:37;99104.75;;;20.91;56.25
75065;BME280;63646;49.110;9.140;2022-11-28T09:55:16;99107.56;;;20.89;56.40
75065;BME280;63646;49.110;9.140;2022-11-28T09:57:48;99110.94;;;20.91;56.25
75065;BME280;63646;49.110;9.140;2022-11-28T10:14:16;99124.34;;;20.90;56.51
75065;BME280;63646;49.110;9.140;2022-11-28T10:19:27;99129.66;;;20.90;56.67
75065;BME280;63646;49.110;9.140;2022-11-28T10:21:59;99119.19;;;20.88;56.39
75065;BME280;63646;49.110;9.140;2022-11-28T10:24:37;99128.81;;;20.89;56.59
75065;BME280;63646;49.110;9.140;2022-11-28T10:27:05;99120.84;;;20.89;56.48
75065;BME280;63646;49.110;9.140;2022-11-28T10:29:51;99120.84;;;20.89;56.63
75065;BME280;63646;49.110;9.140;2022-11-28T10:32:30;99111.34;;;20.87;56.43
75065;BME280;63646;49.110;9.140;2022-11-28T10:37:50;99103.38;;;20.87;56.26
75065;BME280;63646;49.110;9.140;2022-11-28T10:43:05;99099.75;;;20.88;56.59
75065;BME280;63646;49.110;9.140;2022-11-28T10:58:11;99089.97;;;20.88;56.66
75065;BME280;63646;49.110;9.140;2022-11-28T11:02:53;99096.25;;;20.87;56.43
75065;BME280;63646;49.110;9.140;2022-11-28T11:05:24;99099.75;;;20.88;56.29
75065;BME280;63646;49.110;9.140;2022-11-28T11:07:57;99102.41;;;20.88;56.61
75065;BME280;63646;49.110;9.140;2022-11-28T11:10:32;99104.22;;;20.87;56.30
75065;BME280;63646;49.110;9.140;2022-11-28T11:13:14;99104.91;;;20.89;56.38
75065;BME280;63646;49.110;9.140;2022-11-28T11:15:40;99104.91;;;20.89;56.68
75065;BME280;63646;49.110;9.140;2022-11-28T11:18:27;99107.56;;;20.89;56.40
75065;BME280;63646;49.110;9.140;2022-11-28T11:21:06;99091.81;;;20.88;56.73
75065;BME280;63646;49.110;9.140;2022-11-28T11:23:32;99098.78;;;20.89;56.21
75065;BME280;63646;49.110;9.140;2022-11-28T11:25:57;99089.97;;;20.88;56.62
75065;BME280;63646;49.110;9.140;2022-11-28T11:28:27;99085.63;;;20.87;56.23
75065;BME280;63646;49.110;9.140;2022-11-28T11:31:01;99079.47;;;20.87;56.44
75065;BME280;63646;49.110;9.140;2022-11-28T11:33:33;99074.34;;;20.85;55.93
75065;BME280;63646;49.110;9.140;2022-11-28T11:36:02;99076.00;;;20.86;56.59
75065;BME280;63646;49.110;9.140;2022-11-28T11:38:30;99071.50;;;20.87;56.59
75065;BME280;63646;49.110;9.140;2022-11-28T11:40:57;99069.03;;;20.85;56.52
75065;BME280;63646;49.110;9.140;2022-11-28T11:43:31;99070.69;;;20.86;56.37
75065;BME280;63646;49.110;9.140;2022-11-28T11:46:15;99062.72;;;20.86;56.60
75065;BME280;63646;49.110;9.140;2022-11-28T11:48:50;99060.06;;;20.86;56.51
75065;BME280;63646;49.110;9.140;2022-11-28T11:51:29;99053.75;;;20.87;56.40
75065;BME280;63646;49.110;9.140;2022-11-28T11:54:05;99056.41;;;20.87;56.20
75065;BME280;63646;49.110;9.140;2022-11-28T11:56:41;99053.75;;;20.87;56.35
75065;BME280;63646;49.110;9.140;2022-11-28T11:59:15;99056.41;;;20.87;56.69
75065;BME280;63646;49.110;9.140;2022-11-28T12:01:44;99050.28;;;20.87;56.65
75065;BME280;63646;49.110;9.140;2022-11-28T12:04:18;99056.41;;;20.87;56.65
75065;BME280;63646;49.110;9.140;2022-11-28T12:06:50;99048.44;;;20.87;57.05
75065;BME280;63646;49.110;9.140;2022-11-28T12:11:59;99057.13;;;20.89;56.95
75065;BME280;63646;49.110;9.140;2022-11-28T12:14:33;99051.97;;;20.88;57.21
75065;BME280;63646;49.110;9.140;2022-11-28T12:22:19;99054.63;;;20.88;57.10
75065;BME280;63646;49.110;9.140;2022-11-28T12:36:57;99036.84;;;20.88;57.34
75065;BME280;63646;49.110;9.140;2022-11-28T12:47:41;99030.56;;;20.89;57.10
75065;BME280;63646;49.110;9.140;2022-11-28T13:04:24;99030.56;;;20.89;56.81
75065;BME280;63646;49.110;9.140;2022-11-28T13:07:00;99033.22;;;20.89;57.00
75065;BME280;63646;49.110;9.140;2022-11-28T13:12:12;99028.72;;;20.90;57.01
75065;BME280;63646;49.110;9.140;2022-11-28T13:14:54;99026.06;;;20.90;57.14
75065;BME280;63646;49.110;9.140;2022-11-28T13:23:03;99021.47;;;20.92;56.84
75065;BME280;63646;49.110;9.140;2022-11-28T13:25:52;99020.63;;;20.91;57.24
75065;BME280;63646;49.110;9.140;2022-11-28T13:28:32;99023.13;;;20.93;56.70
75065;BME280;63646;49.110;9.140;2022-11-28T13:31:05;99018.81;;;20.92;56.71
75065;BME280;63646;49.110;9.140;2022-11-28T13:33:39;99015.31;;;20.91;56.83
75065;BME280;63646;49.110;9.140;2022-11-28T13:36:15;99016.97;;;20.92;57.16
75065;BME280;63646;49.110;9.140;2022-11-28T13:38:57;99015.16;;;20.93;56.90
75065;BME280;63646;49.110;9.140;2022-11-28T13:44:00;99018.63;;;20.93;56.95
75065;BME280;63646;49.110;9.140;2022-11-28T13:46:27;99019.47;;;20.94;56.85
75065;BME280;63646;49.110;9.140;2022-11-28T13:49:23;99026.59;;;20.93;56.69
75065;BME280;63646;49.110;9.140;2022-11-28T13:54:53;99015.00;;;20.94;56.98
75065;BME280;63646;49.110;9.140;2022-11-28T14:02:34;99001.72;;;20.94;56.59
75065;BME280;63646;49.110;9.140;2022-11-28T14:05:01;98999.06;;;20.94;57.00
75065;BME280;63646;49.110;9.140;2022-11-28T14:07:29;98995.56;;;20.94;57.08
75065;BME280;63646;49.110;9.140;2022-11-28T14:15:28;98999.88;;;20.95;56.72
75065;BME280;63646;49.110;9.140;2022-11-28T14:25:52;99007.72;;;20.96;57.15
75065;BME280;63646;49.110;9.140;2022-11-28T14:30:44;99002.41;;;20.96;57.04
75065;BME280;63646;49.110;9.140;2022-11-28T14:43:28;99017.34;;;20.97;57.02
75065;BME280;63646;49.110;9.140;2022-11-28T14:54:33;99008.53;;;20.97;56.65
75065;BME280;63646;49.110;9.140;2022-11-28T14:57:11;99007.72;;;20.96;56.54
75065;BME280;63646;49.110;9.140;2022-11-28T14:59:37;99009.69;;;20.94;56.68
75065;BME280;63646;49.110;9.140;2022-11-28T15:02:17;99015.81;;;20.95;56.39
75065;BME280;63646;49.110;9.140;2022-11-28T15:10:46;99018.63;;;20.93;56.69
75065;BME280;63646;49.110;9.140;2022-11-28T15:15:52;99016.97;;;20.92;56.70
75065;BME280;63646;49.110;9.140;2022-11-28T15:18:18;99017.81;;;20.93;56.83
75065;BME280;63646;49.110;9.140;2022-11-28T15:20:49;99014.44;;;20.91;56.36
75065;BME280;63646;49.110;9.140;2022-11-28T15:23:44;99014.31;;;20.92;56.47
75065;BME280;63646;49.110;9.140;2022-11-28T15:26:29;99016.97;;;20.92;56.36
75065;BME280;63646;49.110;9.140;2022-11-28T15:29:27;99011.66;;;20.92;56.70
75065;BME280;63646;49.110;9.140;2022-11-28T15:31:54;99007.19;;;20.93;56.65
75065;BME280;63646;49.110;9.140;2022-11-28T15:36:52;99001.03;;;20.92;56.61
75065;BME280;63646;49.110;9.140;2022-11-28T15:41:49;98999.38;;;20.91;56.40
75065;BME280;63646;49.110;9.140;2022-11-28T15:44:15;99001.03;;;20.92;56.36
75065;BME280;63646;49.110;9.140;2022-11-28T15:46:41;99012.19;;;20.96;56.66
75065;BME280;63646;49.110;9.140;2022-11-28T15:49:30;99000.75;;;20.95;56.58
75065;BME280;63646;49.110;9.140;2022-11-28T15:51:59;99008.72;;;20.95;56.43
75065;BME280;63646;49.110;9.140;2022-11-28T15:54:39;99007.72;;;20.96;56.48
75065;BME280;63646;49.110;9.140;2022-11-28T15:57:19;99016.69;;;20.95;56.15
75065;BME280;63646;49.110;9.140;2022-11-28T15:59:44;99007.72;;;20.96;56.23
75065;BME280;63646;49.110;9.140;2022-11-28T16:04:42;99004.22;;;20.96;56.10
75065;BME280;63646;49.110;9.140;2022-11-28T16:07:10;99012.34;;;20.94;56.52
75065;BME280;63646;49.110;9.140;2022-11-28T16:09:37;99010.50;;;20.95;56.46
75065;BME280;63646;49.110;9.140;2022-11-28T16:12:04;99018.34;;;20.96;56.60
75065;BME280;63646;49.110;9.140;2022-11-28T16:14:32;99015.97;;;20.93;56.41
75065;BME280;63646;49.110;9.140;2022-11-28T16:17:00;99018.63;;;20.93;56.62
75065;BME280;63646;49.110;9.140;2022-11-28T16:19:35;99018.81;;;20.92;56.30
75065;BME280;63646;49.110;9.140;2022-11-28T16:22:03;99032.91;;;20.92;56.43
75065;BME280;63646;49.110;9.140;2022-11-28T16:24:32;99027.91;;;20.89;56.39
75065;BME280;63646;49.110;9.140;2022-11-28T16:27:06;99024.25;;;20.90;56.59
75065;BME280;63646;49.110;9.140;2022-11-28T16:29:48;99028.72;;;20.90;57.05
75065;BME280;63646;49.110;9.140;2022-11-28T16:32:22;99024.41;;;20.89;56.49
75065;BME280;63646;49.110;9.140;2022-11-28T16:34:52;99020.09;;;20.88;56.47
75065;BME280;63646;49.110;9.140;2022-11-28T16:37:24;99020.09;;;20.88;56.73
75065;BME280;63646;49.110;9.140;2022-11-28T16:40:14;99022.75;;;20.88;56.31
75065;BME280;63646;49.110;9.140;2022-11-28T16:42:41;99026.53;;;20.85;56.43
75065;BME280;63646;49.110;9.140;2022-11-28T16:45:15;99022.75;;;20.88;56.41
75065;BME280;63646;49.110;9.140;2022-11-28T16:47:42;99020.09;;;20.88;56.40